createdAt,value
2016-05-05T00:00:46.164Z,0
2016-05-05T00:01:46.104Z,0
2016-05-05T00:02:45.967Z,0
2016-05-05T00:03:45.984Z,0
2016-05-05T00:04:46.128Z,0
2016-05-05T00:05:46.130Z,0
2016-05-05T00:06:46.149Z,0
2016-05-05T00:07:46.152Z,0
2016-05-05T00:08:46.013Z,0
2016-05-05T00:09:47.736Z,0
2016-05-05T00:10:46.175Z,0
2016-05-05T00:11:46.163Z,0
2016-05-05T00:12:46.024Z,0
2016-05-05T00:13:46.058Z,0
2016-05-05T00:14:46.046Z,0
2016-05-05T00:15:46.219Z,0
2016-05-05T00:16:46.066Z,0
2016-05-05T00:17:46.224Z,0
2016-05-05T00:18:46.228Z,0
2016-05-05T00:19:46.074Z,0
2016-05-05T00:20:46.265Z,0
2016-05-05T00:21:46.080Z,0
2016-05-05T00:22:46.285Z,0
2016-05-05T00:23:46.257Z,0
2016-05-05T00:24:45.979Z,0
2016-05-05T00:25:46.262Z,0
2016-05-05T00:26:46.140Z,0
2016-05-05T00:27:46.268Z,0
2016-05-05T00:28:46.286Z,0
2016-05-05T00:29:46.164Z,0
2016-05-05T00:30:46.338Z,0
2016-05-05T00:31:46.310Z,0
2016-05-05T00:32:46.328Z,0
2016-05-05T00:33:46.189Z,0
2016-05-05T00:34:46.365Z,0
2016-05-05T00:35:46.320Z,0
2016-05-05T00:36:46.355Z,0
2016-05-05T00:37:46.342Z,0
2016-05-05T00:38:46.375Z,0
2016-05-05T00:39:46.800Z,0
2016-05-05T00:40:46.396Z,0
2016-05-05T00:41:46.399Z,0
2016-05-05T00:42:46.246Z,0
2016-05-05T00:43:46.217Z,0
2016-05-05T00:44:46.266Z,0
2016-05-05T00:45:46.254Z,0
2016-05-05T00:46:46.240Z,0
2016-05-05T00:47:46.416Z,0
2016-05-05T00:48:46.277Z,0
2016-05-05T00:49:46.452Z,0
2016-05-05T00:50:46.454Z,0
2016-05-05T00:51:46.442Z,0
2016-05-05T00:52:46.304Z,0
2016-05-05T00:53:46.447Z,0
2016-05-05T00:54:46.356Z,0
2016-05-05T00:55:46.452Z,0
2016-05-05T00:56:46.518Z,0
2016-05-05T00:57:46.318Z,0
2016-05-05T00:58:46.508Z,0
2016-05-05T00:59:46.495Z,0
2016-05-05T01:00:46.325Z,0
2016-05-05T01:01:46.500Z,0
2016-05-05T01:02:46.565Z,0
2016-05-05T01:03:46.380Z,0
2016-05-05T01:04:46.523Z,0
2016-05-05T01:05:46.542Z,0
2016-05-05T01:06:46.529Z,0
2016-05-05T01:07:46.438Z,0
2016-05-05T01:08:46.925Z,0
2016-05-05T01:09:46.802Z,0
2016-05-05T01:10:46.430Z,0
2016-05-05T01:11:46.417Z,0
2016-05-05T01:12:46.294Z,0
2016-05-05T01:13:46.579Z,0
2016-05-05T01:14:46.472Z,0
2016-05-05T01:15:46.272Z,0
2016-05-05T01:16:46.603Z,0
2016-05-05T01:17:46.465Z,0
2016-05-05T01:18:46.686Z,0
2016-05-05T01:19:46.891Z,0
2016-05-05T01:20:46.629Z,0
2016-05-05T01:21:46.741Z,0
2016-05-05T01:22:46.635Z,0
2016-05-05T01:23:46.684Z,0
2016-05-05T01:24:46.812Z,0
2016-05-05T01:25:46.987Z,0
2016-05-05T01:26:46.521Z,0
2016-05-05T01:27:46.538Z,0
2016-05-05T01:28:47.338Z,0
2016-05-05T01:29:46.715Z,0
2016-05-05T01:30:46.421Z,0
2016-05-05T01:31:46.721Z,0
2016-05-05T01:32:46.740Z,0
2016-05-05T01:33:47.023Z,0
2016-05-05T01:34:46.714Z,0
2016-05-05T01:35:46.607Z,0
2016-05-05T01:36:46.767Z,0
2016-05-05T01:37:46.565Z,0
2016-05-05T01:38:46.740Z,0
2016-05-05T01:39:46.899Z,0
2016-05-05T01:40:46.902Z,0
2016-05-05T01:41:46.795Z,0
2016-05-05T01:42:47.033Z,0
2016-05-05T01:43:46.503Z,0
2016-05-05T01:44:46.975Z,0
2016-05-05T01:45:46.509Z,0
2016-05-05T01:46:46.793Z,0
2016-05-05T01:47:46.732Z,0
2016-05-05T01:48:47.126Z,0
2016-05-05T01:49:46.941Z,0
2016-05-05T01:50:46.850Z,0
2016-05-05T01:51:46.838Z,0
2016-05-05T01:52:46.876Z,0
2016-05-05T01:53:46.812Z,0
2016-05-05T01:54:47.749Z,0
2016-05-05T01:55:47.262Z,0
2016-05-05T01:56:47.089Z,0
2016-05-05T01:57:46.949Z,0
2016-05-05T01:58:47.279Z,0
2016-05-05T01:59:47.141Z,0
2016-05-05T02:00:47.018Z,0
2016-05-05T02:01:47.022Z,0
2016-05-05T02:02:47.379Z,0
2016-05-05T02:03:47.341Z,0
2016-05-05T02:04:47.098Z,0
2016-05-05T02:05:46.951Z,0
2016-05-05T02:06:47.256Z,0
2016-05-05T02:07:47.247Z,0
2016-05-05T02:08:47.330Z,0
2016-05-05T02:09:47.022Z,0
2016-05-05T02:10:47.151Z,0
2016-05-05T02:11:47.483Z,0
2016-05-05T02:12:47.332Z,0
2016-05-05T02:13:47.258Z,0
2016-05-05T02:14:47.307Z,0
2016-05-05T02:15:47.437Z,0
2016-05-05T02:16:47.173Z,0
2016-05-05T02:17:47.177Z,0
2016-05-05T02:18:47.399Z,0
2016-05-05T02:19:47.215Z,0
2016-05-05T02:20:47.358Z,0
2016-05-05T02:21:47.377Z,0
2016-05-05T02:22:47.553Z,0
2016-05-05T02:23:47.338Z,0
2016-05-05T02:24:47.449Z,0
2016-05-05T02:25:47.609Z,0
2016-05-05T02:26:47.392Z,0
2016-05-05T02:27:47.426Z,0
2016-05-05T02:28:47.429Z,0
2016-05-05T02:29:47.448Z,0
2016-05-05T02:30:47.419Z,0
2016-05-05T02:31:47.390Z,0
2016-05-05T02:32:47.440Z,0
2016-05-05T02:33:47.536Z,0
2016-05-05T02:34:47.289Z,0
2016-05-05T02:35:47.167Z,0
2016-05-05T02:36:47.575Z,0
2016-05-05T02:37:47.328Z,0
2016-05-05T02:38:47.769Z,0
2016-05-05T02:39:48.756Z,0
2016-05-05T02:40:47.603Z,0
2016-05-05T02:41:47.511Z,0
2016-05-05T02:42:47.530Z,0
2016-05-05T02:43:47.750Z,0
2016-05-05T02:44:47.364Z,0
2016-05-05T02:45:47.506Z,0
2016-05-05T02:46:47.555Z,0
2016-05-05T02:47:47.527Z,0
2016-05-05T02:48:47.389Z,0
2016-05-05T02:49:47.704Z,0
2016-05-05T02:50:47.395Z,0
2016-05-05T02:51:47.397Z,0
2016-05-05T02:52:47.728Z,0
2016-05-05T02:53:47.730Z,0
2016-05-05T02:54:47.577Z,0
2016-05-05T02:55:47.877Z,0
2016-05-05T02:56:47.614Z,0
2016-05-05T02:57:47.585Z,0
2016-05-05T02:58:47.932Z,0
2016-05-05T02:59:47.638Z,0
2016-05-05T03:00:47.625Z,0
2016-05-05T03:01:47.752Z,0
2016-05-05T03:02:47.646Z,0
2016-05-05T03:03:47.476Z,0
2016-05-05T03:04:47.682Z,0
2016-05-05T03:05:47.654Z,0
2016-05-05T03:06:47.672Z,0
2016-05-05T03:07:47.675Z,0
2016-05-05T03:08:47.662Z,0
2016-05-05T03:09:47.759Z,0
2016-05-05T03:10:47.964Z,0
2016-05-05T03:11:47.700Z,0
2016-05-05T03:12:47.688Z,0
2016-05-05T03:13:47.706Z,0
2016-05-05T03:14:47.694Z,0
2016-05-05T03:15:47.618Z,0
2016-05-05T03:16:47.417Z,0
2016-05-05T03:17:47.717Z,0
2016-05-05T03:18:48.002Z,0
2016-05-05T03:19:47.723Z,0
2016-05-05T03:20:47.757Z,0
2016-05-05T03:21:47.743Z,0
2016-05-05T03:22:48.027Z,0
2016-05-05T03:23:47.765Z,0
2016-05-05T03:24:48.486Z,0
2016-05-05T03:25:47.474Z,0
2016-05-05T03:26:47.804Z,0
2016-05-05T03:27:47.822Z,0
2016-05-05T03:28:47.496Z,0
2016-05-05T03:29:47.813Z,0
2016-05-05T03:30:47.487Z,0
2016-05-05T03:31:47.848Z,0
2016-05-05T03:32:47.960Z,0
2016-05-05T03:33:47.682Z,0
2016-05-05T03:34:48.045Z,0
2016-05-05T03:35:47.704Z,0
2016-05-05T03:36:47.675Z,0
2016-05-05T03:37:47.943Z,0
2016-05-05T03:38:47.852Z,0
2016-05-05T03:39:49.167Z,0
2016-05-05T03:40:47.748Z,0
2016-05-05T03:41:47.891Z,0
2016-05-05T03:42:47.737Z,0
2016-05-05T03:43:47.912Z,0
2016-05-05T03:44:47.915Z,0
2016-05-05T03:45:47.917Z,0
2016-05-05T03:46:47.998Z,0
2016-05-05T03:47:48.033Z,0
2016-05-05T03:48:47.926Z,0
2016-05-05T03:49:47.944Z,0
2016-05-05T03:50:47.790Z,0
2016-05-05T03:51:47.965Z,0
2016-05-05T03:52:47.952Z,0
2016-05-05T03:53:47.970Z,0
2016-05-05T03:54:48.238Z,0
2016-05-05T03:55:48.038Z,0
2016-05-05T03:56:47.994Z,0
2016-05-05T03:57:47.997Z,0
2016-05-05T03:58:47.999Z,0
2016-05-05T03:59:47.987Z,0
2016-05-05T04:00:48.020Z,0
2016-05-05T04:01:48.038Z,0
2016-05-05T04:02:48.041Z,0
2016-05-05T04:03:47.997Z,0
2016-05-05T04:04:48.046Z,0
2016-05-05T04:05:48.034Z,0
2016-05-05T04:06:48.052Z,0
2016-05-05T04:07:47.884Z,0
2016-05-05T04:08:47.604Z,0
2016-05-05T04:09:47.935Z,0
2016-05-05T04:10:47.937Z,0
2016-05-05T04:11:48.097Z,0
2016-05-05T04:12:48.068Z,0
2016-05-05T04:13:48.103Z,0
2016-05-05T04:14:48.089Z,0
2016-05-05T04:15:47.951Z,0
2016-05-05T04:16:48.111Z,5
2016-05-05T04:17:47.973Z,5
2016-05-05T04:18:48.131Z,5
2016-05-05T04:19:48.103Z,5
2016-05-05T04:20:48.152Z,5
2016-05-05T04:21:48.108Z,5
2016-05-05T04:22:48.017Z,5
2016-05-05T04:23:48.144Z,5
2016-05-05T04:24:49.179Z,5
2016-05-05T04:25:48.166Z,5
2016-05-05T04:26:48.200Z,5
2016-05-05T04:27:48.016Z,5
2016-05-05T04:28:48.190Z,5
2016-05-05T04:29:48.021Z,5
2016-05-05T04:30:48.210Z,5
2016-05-05T04:31:48.244Z,10
2016-05-05T04:32:48.216Z,10
2016-05-05T04:33:48.234Z,10
2016-05-05T04:34:48.237Z,10
2016-05-05T04:35:48.067Z,10
2016-05-05T04:36:48.243Z,10
2016-05-05T04:37:48.089Z,10
2016-05-05T04:38:48.263Z,10
2016-05-05T04:39:48.095Z,10
2016-05-05T04:40:48.284Z,10
2016-05-05T04:41:48.131Z,10
2016-05-05T04:42:48.290Z,10
2016-05-05T04:43:48.120Z,10
2016-05-05T04:44:48.279Z,10
2016-05-05T04:45:48.126Z,10
2016-05-05T04:46:48.301Z,15
2016-05-05T04:47:48.162Z,10
2016-05-05T04:48:48.149Z,10
2016-05-05T04:49:48.168Z,10
2016-05-05T04:50:48.170Z,15
2016-05-05T04:51:48.330Z,15
2016-05-05T04:52:48.191Z,15
2016-05-05T04:53:48.195Z,15
2016-05-05T04:54:49.463Z,15
2016-05-05T04:55:48.387Z,15
2016-05-05T04:56:48.344Z,15
2016-05-05T04:57:48.361Z,15
2016-05-05T04:58:48.379Z,15
2016-05-05T04:59:48.399Z,15
2016-05-05T05:00:48.369Z,15
2016-05-05T05:01:48.404Z,10
2016-05-05T05:02:48.266Z,10
2016-05-05T05:03:48.268Z,15
2016-05-05T05:04:48.395Z,15
2016-05-05T05:05:48.273Z,15
2016-05-05T05:06:48.261Z,15
2016-05-05T05:07:48.451Z,15
2016-05-05T05:08:48.469Z,15
2016-05-05T05:09:48.362Z,15
2016-05-05T05:10:48.459Z,15
2016-05-05T05:11:48.476Z,15
2016-05-05T05:12:48.293Z,15
2016-05-05T05:13:48.342Z,15
2016-05-05T05:14:48.314Z,15
2016-05-05T05:15:48.504Z,10
2016-05-05T05:16:48.506Z,15
2016-05-05T05:17:48.508Z,15
2016-05-05T05:18:48.339Z,15
2016-05-05T05:19:48.514Z,15
2016-05-05T05:20:48.376Z,15
2016-05-05T05:21:48.364Z,15
2016-05-05T05:22:48.553Z,15
2016-05-05T05:23:48.525Z,15
2016-05-05T05:24:48.575Z,15
2016-05-05T05:25:48.405Z,15
2016-05-05T05:26:48.549Z,15
2016-05-05T05:27:48.426Z,15
2016-05-05T05:28:48.554Z,15
2016-05-05T05:29:48.307Z,15
2016-05-05T05:30:48.419Z,15
2016-05-05T05:31:48.609Z,15
2016-05-05T05:32:48.627Z,15
2016-05-05T05:33:48.630Z,15
2016-05-05T05:34:48.617Z,15
2016-05-05T05:35:48.604Z,15
2016-05-05T05:36:48.466Z,15
2016-05-05T05:37:48.609Z,15
2016-05-05T05:38:48.628Z,15
2016-05-05T05:39:49.334Z,15
2016-05-05T05:40:48.649Z,15
2016-05-05T05:41:48.542Z,15
2016-05-05T05:42:48.498Z,15
2016-05-05T05:43:48.672Z,15
2016-05-05T05:44:48.675Z,15
2016-05-05T05:45:48.693Z,15
2016-05-05T05:46:48.509Z,15
2016-05-05T05:47:48.558Z,15
2016-05-05T05:48:48.717Z,15
2016-05-05T05:49:48.704Z,15
2016-05-05T05:50:48.566Z,15
2016-05-05T05:51:48.756Z,15
2016-05-05T05:52:48.587Z,15
2016-05-05T05:53:48.730Z,15
2016-05-05T05:54:48.592Z,15
2016-05-05T05:55:48.767Z,15
2016-05-05T05:56:48.582Z,15
2016-05-05T05:57:48.616Z,15
2016-05-05T05:58:48.775Z,15
2016-05-05T05:59:48.778Z,15
2016-05-05T06:00:48.452Z,15
2016-05-05T06:01:48.643Z,15
2016-05-05T06:02:48.801Z,15
2016-05-05T06:03:48.648Z,15
2016-05-05T06:04:48.807Z,15
2016-05-05T06:05:48.685Z,15
2016-05-05T06:06:48.813Z,15
2016-05-05T06:07:48.831Z,15
2016-05-05T06:08:48.848Z,15
2016-05-05T06:09:49.070Z,15
2016-05-05T06:10:48.699Z,15
2016-05-05T06:11:48.373Z,15
2016-05-05T06:12:48.890Z,15
2016-05-05T06:13:48.862Z,15
2016-05-05T06:14:48.865Z,20
2016-05-05T06:15:48.695Z,20
2016-05-05T06:16:48.901Z,20
2016-05-05T06:17:48.904Z,20
2016-05-05T06:18:48.735Z,20
2016-05-05T06:19:48.769Z,20
2016-05-05T06:20:48.912Z,20
2016-05-05T06:21:48.915Z,20
2016-05-05T06:22:48.949Z,20
2016-05-05T06:23:48.915Z,20
2016-05-05T06:24:48.996Z,20
2016-05-05T06:25:48.966Z,20
2016-05-05T06:26:48.830Z,20
2016-05-05T06:27:48.941Z,20
2016-05-05T06:28:48.803Z,20
2016-05-05T06:29:48.806Z,20
2016-05-05T06:30:48.840Z,20
2016-05-05T06:31:48.796Z,20
2016-05-05T06:32:48.830Z,20
2016-05-05T06:33:48.832Z,20
2016-05-05T06:34:49.007Z,20
2016-05-05T06:35:48.978Z,20
2016-05-05T06:36:49.012Z,20
2016-05-05T06:37:49.015Z,20
2016-05-05T06:38:49.033Z,20
2016-05-05T06:39:50.567Z,20
2016-05-05T06:40:49.054Z,20
2016-05-05T06:41:49.025Z,20
2016-05-05T06:42:49.060Z,20
2016-05-05T06:43:49.047Z,20
2016-05-05T06:44:49.081Z,20
2016-05-05T06:45:49.067Z,20
2016-05-05T06:46:49.086Z,20
2016-05-05T06:47:49.073Z,20
2016-05-05T06:48:49.107Z,20
2016-05-05T06:49:49.094Z,20
2016-05-05T06:50:49.113Z,20
2016-05-05T06:51:49.083Z,20
2016-05-05T06:52:49.102Z,20
2016-05-05T06:53:49.136Z,20
2016-05-05T06:54:50.764Z,20
2016-05-05T06:55:49.141Z,20
2016-05-05T06:56:49.144Z,20
2016-05-05T06:57:49.147Z,20
2016-05-05T06:58:49.134Z,20
2016-05-05T06:59:49.027Z,20
2016-05-05T07:00:49.185Z,20
2016-05-05T07:01:49.174Z,20
2016-05-05T07:02:49.176Z,20
2016-05-05T07:03:49.210Z,20
2016-05-05T07:04:49.197Z,20
2016-05-05T07:05:49.216Z,20
2016-05-05T07:06:49.046Z,20
2016-05-05T07:07:49.221Z,20
2016-05-05T07:08:49.207Z,20
2016-05-05T07:09:49.195Z,20
2016-05-05T07:10:49.245Z,20
2016-05-05T07:11:49.262Z,20
2016-05-05T07:12:49.265Z,20
2016-05-05T07:13:49.237Z,20
2016-05-05T07:14:49.256Z,15
2016-05-05T07:15:49.273Z,25
2016-05-05T07:16:49.119Z,25
2016-05-05T07:17:49.295Z,25
2016-05-05T07:18:49.281Z,25
2016-05-05T07:19:49.331Z,25
2016-05-05T07:20:49.271Z,25
2016-05-05T07:21:49.149Z,25
2016-05-05T07:22:49.183Z,30
2016-05-05T07:23:49.138Z,25
2016-05-05T07:24:49.391Z,25
2016-05-05T07:25:49.175Z,25
2016-05-05T07:26:49.178Z,25
2016-05-05T07:27:49.352Z,25
2016-05-05T07:28:49.340Z,30
2016-05-05T07:29:49.374Z,30
2016-05-05T07:30:49.205Z,30
2016-05-05T07:31:49.082Z,30
2016-05-05T07:32:49.382Z,30
2016-05-05T07:33:49.385Z,25
2016-05-05T07:34:49.402Z,30
2016-05-05T07:35:49.234Z,30
2016-05-05T07:36:49.268Z,30
2016-05-05T07:37:49.426Z,25
2016-05-05T07:38:49.257Z,30
2016-05-05T07:39:50.306Z,20
2016-05-05T07:40:49.123Z,30
2016-05-05T07:41:49.421Z,30
2016-05-05T07:42:49.298Z,25
2016-05-05T07:43:49.459Z,25
2016-05-05T07:44:49.461Z,25
2016-05-05T07:45:49.464Z,35
2016-05-05T07:46:49.450Z,20
2016-05-05T07:47:49.484Z,25
2016-05-05T07:48:49.487Z,30
2016-05-05T07:49:49.489Z,30
2016-05-05T07:50:49.478Z,45
2016-05-05T07:51:49.527Z,40
2016-05-05T07:52:49.483Z,35
2016-05-05T07:53:49.391Z,35
2016-05-05T07:54:49.769Z,35
2016-05-05T07:55:49.521Z,40
2016-05-05T07:56:49.383Z,40
2016-05-05T07:57:49.543Z,40
2016-05-05T07:58:49.389Z,35
2016-05-05T07:59:49.580Z,35
2016-05-05T08:00:49.551Z,35
2016-05-05T08:01:49.413Z,40
2016-05-05T08:02:49.415Z,30
2016-05-05T08:03:49.434Z,40
2016-05-05T08:04:49.593Z,40
2016-05-05T08:05:49.299Z,25
2016-05-05T08:06:49.583Z,40
2016-05-05T08:07:49.616Z,35
2016-05-05T08:08:49.618Z,30
2016-05-05T08:09:50.060Z,35
2016-05-05T08:10:49.609Z,40
2016-05-05T08:11:49.674Z,40
2016-05-05T08:12:49.645Z,35
2016-05-05T08:13:49.632Z,25
2016-05-05T08:14:49.479Z,35
2016-05-05T08:15:49.357Z,35
2016-05-05T08:16:49.672Z,45
2016-05-05T08:17:49.502Z,45
2016-05-05T08:18:49.693Z,50
2016-05-05T08:19:49.680Z,50
2016-05-05T08:20:49.683Z,50
2016-05-05T08:21:49.717Z,50
2016-05-05T08:22:49.579Z,45
2016-05-05T08:23:49.691Z,30
2016-05-05T08:24:49.756Z,35
2016-05-05T08:25:49.743Z,40
2016-05-05T08:26:49.730Z,30
2016-05-05T08:27:49.749Z,40
2016-05-05T08:28:49.783Z,40
2016-05-05T08:29:49.613Z,40
2016-05-05T08:30:49.647Z,40
2016-05-05T08:31:49.775Z,40
2016-05-05T08:32:49.621Z,45
2016-05-05T08:33:49.780Z,45
2016-05-05T08:34:49.846Z,40
2016-05-05T08:35:49.801Z,40
2016-05-05T08:36:49.648Z,40
2016-05-05T08:37:49.338Z,45
2016-05-05T08:38:49.824Z,50
2016-05-05T08:39:49.827Z,50
2016-05-05T08:40:49.861Z,45
2016-05-05T08:41:49.536Z,45
2016-05-05T08:42:49.851Z,45
2016-05-05T08:43:49.698Z,45
2016-05-05T08:44:49.840Z,45
2016-05-05T08:45:49.876Z,45
2016-05-05T08:46:49.893Z,45
2016-05-05T08:47:49.723Z,45
2016-05-05T08:48:49.883Z,45
2016-05-05T08:49:49.604Z,50
2016-05-05T08:50:49.639Z,35
2016-05-05T08:51:49.906Z,50
2016-05-05T08:52:49.925Z,50
2016-05-05T08:53:49.897Z,50
2016-05-05T08:54:49.789Z,50
2016-05-05T08:55:49.917Z,50
2016-05-05T08:56:49.811Z,45
2016-05-05T08:57:49.783Z,40
2016-05-05T08:58:49.957Z,40
2016-05-05T08:59:49.802Z,40
2016-05-05T09:00:49.806Z,60
2016-05-05T09:01:49.825Z,65
2016-05-05T09:02:49.998Z,50
2016-05-05T09:03:49.986Z,45
2016-05-05T09:04:49.848Z,40
2016-05-05T09:05:49.866Z,55
2016-05-05T09:06:50.024Z,60
2016-05-05T09:07:49.699Z,60
2016-05-05T09:08:50.046Z,55
2016-05-05T09:09:50.049Z,60
2016-05-05T09:10:50.035Z,70
2016-05-05T09:11:50.054Z,80
2016-05-05T09:12:50.073Z,75
2016-05-05T09:13:50.044Z,70
2016-05-05T09:14:50.109Z,60
2016-05-05T09:15:49.909Z,65
2016-05-05T09:16:50.084Z,55
2016-05-05T09:17:49.962Z,50
2016-05-05T09:18:49.791Z,55
2016-05-05T09:19:49.935Z,80
2016-05-05T09:20:49.969Z,80
2016-05-05T09:21:49.972Z,80
2016-05-05T09:22:49.990Z,80
2016-05-05T09:23:50.117Z,80
2016-05-05T09:24:49.870Z,75
2016-05-05T09:25:50.154Z,70
2016-05-05T09:26:50.158Z,70
2016-05-05T09:27:50.003Z,50
2016-05-05T09:28:50.022Z,50
2016-05-05T09:29:50.167Z,60
2016-05-05T09:30:50.060Z,75
2016-05-05T09:31:50.176Z,50
2016-05-05T09:32:51.515Z,65
2016-05-05T09:33:50.200Z,80
2016-05-05T09:34:50.218Z,80
2016-05-05T09:35:50.221Z,60
2016-05-05T09:36:50.208Z,75
2016-05-05T09:37:50.241Z,50
2016-05-05T09:38:50.212Z,45
2016-05-05T09:39:50.138Z,65
2016-05-05T09:40:50.234Z,75
2016-05-05T09:41:50.268Z,50
2016-05-05T09:42:50.296Z,55
2016-05-05T09:43:50.268Z,50
2016-05-05T09:44:50.145Z,50
2016-05-05T09:45:50.131Z,70
2016-05-05T09:46:50.323Z,50
2016-05-05T09:47:53.012Z,55
2016-05-05T09:48:50.312Z,65
2016-05-05T09:49:50.315Z,90
2016-05-05T09:50:50.177Z,60
2016-05-05T09:51:50.351Z,55
2016-05-05T09:52:50.323Z,70
2016-05-05T09:53:50.356Z,70
2016-05-05T09:54:50.594Z,70
2016-05-05T09:55:50.362Z,70
2016-05-05T09:56:50.364Z,85
2016-05-05T09:57:50.399Z,80
2016-05-05T09:58:50.370Z,80
2016-05-05T09:59:50.091Z,65
2016-05-05T10:00:50.375Z,75
2016-05-05T10:01:50.253Z,70
2016-05-05T10:02:50.380Z,65
2016-05-05T10:03:50.430Z,55
2016-05-05T10:04:50.417Z,50
2016-05-05T10:05:50.279Z,45
2016-05-05T10:06:49.970Z,45
2016-05-05T10:07:50.441Z,55
2016-05-05T10:08:50.459Z,65
2016-05-05T10:09:50.962Z,70
2016-05-05T10:10:50.152Z,70
2016-05-05T10:11:50.326Z,65
2016-05-05T10:12:50.502Z,85
2016-05-05T10:13:50.489Z,95
2016-05-05T10:14:50.475Z,90
2016-05-05T10:15:50.354Z,85
2016-05-05T10:16:50.497Z,80
2016-05-05T10:17:50.514Z,70
2016-05-05T10:18:50.518Z,70
2016-05-05T10:19:50.536Z,75
2016-05-05T10:20:50.553Z,75
2016-05-05T10:21:50.386Z,80
2016-05-05T10:22:50.559Z,80
2016-05-05T10:23:50.531Z,85
2016-05-05T10:24:51.705Z,80
2016-05-05T10:25:50.583Z,80
2016-05-05T10:26:50.602Z,75
2016-05-05T10:27:50.980Z,80
2016-05-05T10:28:50.591Z,85
2016-05-05T10:29:50.578Z,75
2016-05-05T10:30:50.627Z,80
2016-05-05T10:31:50.583Z,85
2016-05-05T10:32:50.619Z,65
2016-05-05T10:33:50.480Z,55
2016-05-05T10:34:50.624Z,50
2016-05-05T10:35:50.516Z,50
2016-05-05T10:36:50.660Z,55
2016-05-05T10:37:50.663Z,60
2016-05-05T10:38:50.681Z,70
2016-05-05T10:39:52.152Z,70
2016-05-05T10:40:50.545Z,70
2016-05-05T10:41:50.532Z,50
2016-05-05T10:42:50.707Z,40
2016-05-05T10:43:50.695Z,55
2016-05-05T10:44:50.712Z,45
2016-05-05T10:45:50.715Z,40
2016-05-05T10:46:50.734Z,45
2016-05-05T10:47:50.424Z,50
2016-05-05T10:48:50.754Z,45
2016-05-05T10:49:50.586Z,45
2016-05-05T10:50:50.759Z,50
2016-05-05T10:51:50.747Z,45
2016-05-05T10:52:50.750Z,55
2016-05-05T10:53:50.642Z,70
2016-05-05T10:54:51.458Z,105
2016-05-05T10:55:50.805Z,75
2016-05-05T10:56:52.370Z,55
2016-05-05T10:57:50.669Z,50
2016-05-05T10:58:50.860Z,70
2016-05-05T10:59:50.719Z,80
2016-05-05T11:00:50.968Z,85
2016-05-05T11:01:51.531Z,90
2016-05-05T11:02:52.295Z,85
2016-05-05T11:03:50.931Z,75
2016-05-05T11:04:51.122Z,80
2016-05-05T11:05:50.968Z,70
2016-05-05T11:06:51.002Z,70
2016-05-05T11:07:51.145Z,75
2016-05-05T11:08:51.173Z,80
2016-05-05T11:09:51.306Z,90
2016-05-05T11:10:51.220Z,90
2016-05-05T11:11:51.291Z,65
2016-05-05T11:12:51.267Z,85
2016-05-05T11:13:51.241Z,85
2016-05-05T11:14:51.246Z,90
2016-05-05T11:15:51.297Z,115
2016-05-05T11:16:51.271Z,75
2016-05-05T11:17:51.322Z,70
2016-05-05T11:18:51.295Z,55
2016-05-05T11:19:51.330Z,55
2016-05-05T11:20:51.145Z,80
2016-05-05T11:21:51.352Z,90
2016-05-05T11:22:51.387Z,105
2016-05-05T11:23:51.340Z,110
2016-05-05T11:24:51.671Z,90
2016-05-05T11:25:51.361Z,105
2016-05-05T11:26:51.380Z,80
2016-05-05T11:27:51.227Z,105
2016-05-05T11:28:51.230Z,105
2016-05-05T11:29:51.217Z,80
2016-05-05T11:30:51.235Z,75
2016-05-05T11:31:51.411Z,70
2016-05-05T11:32:51.257Z,80
2016-05-05T11:33:51.291Z,100
2016-05-05T11:34:51.418Z,95
2016-05-05T11:35:51.436Z,85
2016-05-05T11:36:51.471Z,85
2016-05-05T11:37:51.457Z,115
2016-05-05T11:38:51.304Z,95
2016-05-05T11:39:51.511Z,75
2016-05-05T11:40:51.466Z,80
2016-05-05T11:41:51.485Z,95
2016-05-05T11:42:51.330Z,110
2016-05-05T11:43:51.505Z,120
2016-05-05T11:44:51.507Z,115
2016-05-05T11:45:51.371Z,130
2016-05-05T11:46:51.529Z,105
2016-05-05T11:47:51.360Z,120
2016-05-05T11:48:51.549Z,125
2016-05-05T11:49:51.537Z,90
2016-05-05T11:50:51.399Z,110
2016-05-05T11:51:51.573Z,100
2016-05-05T11:52:51.560Z,105
2016-05-05T11:53:51.563Z,110
2016-05-05T11:54:51.879Z,80
2016-05-05T11:55:51.460Z,100
2016-05-05T11:56:51.290Z,85
2016-05-05T11:57:51.621Z,105
2016-05-05T11:58:51.608Z,80
2016-05-05T11:59:51.454Z,75
2016-05-05T12:00:51.660Z,110
2016-05-05T12:01:51.647Z,90
2016-05-05T12:02:51.650Z,80
2016-05-05T12:03:51.512Z,110
2016-05-05T12:04:51.656Z,95
2016-05-05T12:05:51.533Z,100
2016-05-05T12:06:51.692Z,105
2016-05-05T12:07:51.522Z,105
2016-05-05T12:08:51.557Z,105
2016-05-05T12:09:51.606Z,90
2016-05-05T12:10:51.719Z,95
2016-05-05T12:11:51.549Z,95
2016-05-05T12:12:51.724Z,90
2016-05-05T12:13:51.726Z,55
2016-05-05T12:14:51.760Z,80
2016-05-05T12:15:51.434Z,75
2016-05-05T12:16:51.766Z,75
2016-05-05T12:17:51.769Z,75
2016-05-05T12:18:51.646Z,75
2016-05-05T12:19:51.774Z,80
2016-05-05T12:20:51.776Z,80
2016-05-05T12:21:51.638Z,85
2016-05-05T12:22:51.844Z,80
2016-05-05T12:23:51.659Z,70
2016-05-05T12:24:53.366Z,65
2016-05-05T12:25:51.837Z,110
2016-05-05T12:26:51.543Z,115
2016-05-05T12:27:51.811Z,75
2016-05-05T12:28:51.704Z,65
2016-05-05T12:29:51.878Z,85
2016-05-05T12:30:51.710Z,55
2016-05-05T12:31:51.853Z,70
2016-05-05T12:32:51.730Z,90
2016-05-05T12:33:51.764Z,90
2016-05-05T12:34:51.767Z,110
2016-05-05T12:35:51.879Z,85
2016-05-05T12:36:51.913Z,85
2016-05-05T12:37:51.760Z,110
2016-05-05T12:38:51.934Z,100
2016-05-05T12:39:52.343Z,100
2016-05-05T12:40:51.955Z,105
2016-05-05T12:41:51.974Z,95
2016-05-05T12:42:51.788Z,95
2016-05-05T12:43:51.822Z,95
2016-05-05T12:44:51.997Z,80
2016-05-05T12:45:52.032Z,80
2016-05-05T12:46:51.987Z,75
2016-05-05T12:47:52.005Z,75
2016-05-05T12:48:51.852Z,60
2016-05-05T12:49:51.885Z,55
2016-05-05T12:50:51.888Z,80
2016-05-05T12:51:51.859Z,80
2016-05-05T12:52:51.893Z,80
2016-05-05T12:53:52.037Z,85
2016-05-05T12:54:51.931Z,80
2016-05-05T12:55:52.059Z,75
2016-05-05T12:56:52.092Z,70
2016-05-05T12:57:51.938Z,70
2016-05-05T12:58:52.112Z,50
2016-05-05T12:59:52.085Z,55
2016-05-05T13:00:51.947Z,65
2016-05-05T13:01:52.106Z,70
2016-05-05T13:02:52.139Z,65
2016-05-05T13:03:52.158Z,70
2016-05-05T13:04:51.973Z,75
2016-05-05T13:05:52.163Z,80
2016-05-05T13:06:52.166Z,75
2016-05-05T13:07:52.153Z,70
2016-05-05T13:08:52.203Z,65
2016-05-05T13:09:53.174Z,70
2016-05-05T13:10:52.208Z,70
2016-05-05T13:11:52.180Z,70
2016-05-05T13:12:51.900Z,70
2016-05-05T13:13:52.060Z,75
2016-05-05T13:14:52.234Z,50
2016-05-05T13:15:52.049Z,50
2016-05-05T13:16:52.224Z,50
2016-05-05T13:17:52.243Z,70
2016-05-05T13:18:52.276Z,70
2016-05-05T13:19:52.123Z,70
2016-05-05T13:20:52.266Z,70
2016-05-05T13:21:52.269Z,70
2016-05-05T13:22:52.271Z,70
2016-05-05T13:23:52.321Z,70
2016-05-05T13:24:53.637Z,60
2016-05-05T13:25:52.326Z,70
2016-05-05T13:26:52.157Z,65
2016-05-05T13:27:52.332Z,70
2016-05-05T13:28:52.318Z,75
2016-05-05T13:29:52.353Z,65
2016-05-05T13:30:52.340Z,60
2016-05-05T13:31:52.373Z,50
2016-05-05T13:32:52.220Z,80
2016-05-05T13:33:52.379Z,60
2016-05-05T13:34:52.398Z,80
2016-05-05T13:35:52.666Z,80
2016-05-05T13:36:52.230Z,75
2016-05-05T13:38:13.156Z,75
2016-05-05T13:38:52.424Z,70
2016-05-05T13:39:53.661Z,70
2016-05-05T13:40:52.430Z,70
2016-05-05T13:41:52.463Z,70
2016-05-05T13:42:52.153Z,60
2016-05-05T13:43:52.484Z,60
2016-05-05T13:44:52.315Z,60
2016-05-05T13:45:52.474Z,60
2016-05-05T13:46:52.508Z,60
2016-05-05T13:47:52.511Z,60
2016-05-05T13:48:52.497Z,60
2016-05-05T13:49:52.515Z,60
2016-05-05T13:50:52.519Z,60
2016-05-05T13:51:52.521Z,50
2016-05-05T13:52:52.540Z,60
2016-05-05T13:53:52.418Z,65
2016-05-05T13:54:52.373Z,65
2016-05-05T13:55:52.391Z,70
2016-05-05T13:56:52.441Z,65
2016-05-05T13:57:52.412Z,60
2016-05-05T13:58:52.415Z,60
2016-05-05T13:59:52.449Z,60
2016-05-05T14:00:52.436Z,55
2016-05-05T14:01:52.439Z,55
2016-05-05T14:02:52.628Z,55
2016-05-05T14:03:52.491Z,55
2016-05-05T14:04:52.478Z,55
2016-05-05T14:05:52.637Z,55
2016-05-05T14:06:52.342Z,60
2016-05-05T14:07:52.345Z,65
2016-05-05T14:08:52.661Z,70
2016-05-05T14:09:52.570Z,70
2016-05-05T14:10:52.588Z,65
2016-05-05T14:11:52.716Z,60
2016-05-05T14:12:52.531Z,60
2016-05-05T14:13:52.722Z,55
2016-05-05T14:14:52.724Z,55
2016-05-05T14:15:52.758Z,55
2016-05-05T14:16:52.729Z,60
2016-05-05T14:17:52.608Z,65
2016-05-05T14:18:52.749Z,65
2016-05-05T14:19:52.784Z,65
2016-05-05T14:20:52.803Z,60
2016-05-05T14:21:52.618Z,60
2016-05-05T14:22:52.479Z,55
2016-05-05T14:23:52.810Z,50
2016-05-05T14:24:53.251Z,50